createdAt,value
2017-12-10T00:00:58.846Z,0
2017-12-10T00:02:09.167Z,0
2017-12-10T00:03:19.488Z,0
2017-12-10T00:04:29.741Z,0
2017-12-10T00:05:39.395Z,0
2017-12-10T00:06:49.695Z,0
2017-12-10T00:07:59.970Z,0
2017-12-10T00:09:10.235Z,0
2017-12-10T00:10:19.859Z,0
2017-12-10T00:11:30.114Z,0
2017-12-10T00:12:41.342Z,0
2017-12-10T00:13:51.590Z,0
2017-12-10T00:15:01.841Z,0
2017-12-10T00:16:12.122Z,0
2017-12-10T00:17:22.209Z,0
2017-12-10T00:18:32.307Z,0
2017-12-10T00:19:42.345Z,0
2017-12-10T00:20:52.360Z,0
2017-12-10T00:22:01.857Z,0
2017-12-10T00:23:12.112Z,0
2017-12-10T00:24:22.104Z,0
2017-12-10T00:25:32.127Z,0
2017-12-10T00:26:42.461Z,0
2017-12-10T00:27:52.708Z,0
2017-12-10T00:29:34.856Z,0
2017-12-10T00:30:45.173Z,0
2017-12-10T00:31:55.531Z,0
2017-12-10T00:33:05.769Z,0
2017-12-10T00:34:16.060Z,0
2017-12-10T00:35:26.427Z,0
2017-12-10T00:36:36.408Z,0
2017-12-10T00:37:46.655Z,0
2017-12-10T00:38:56.906Z,0
2017-12-10T00:40:06.809Z,0
2017-12-10T00:41:17.020Z,0
2017-12-10T00:42:27.544Z,0
2017-12-10T00:43:37.787Z,0
2017-12-10T00:44:48.036Z,0
2017-12-10T00:45:58.114Z,0
2017-12-10T00:47:08.371Z,0
2017-12-10T00:48:18.643Z,0
2017-12-10T00:49:28.573Z,0
2017-12-10T00:50:38.905Z,0
2017-12-10T00:51:49.191Z,0
2017-12-10T00:52:59.440Z,0
2017-12-10T00:54:09.743Z,0
2017-12-10T00:55:19.841Z,0
2017-12-10T00:56:30.086Z,0
2017-12-10T00:57:40.344Z,0
2017-12-10T00:58:50.404Z,0
2017-12-10T01:00:00.660Z,0
2017-12-10T01:01:10.936Z,0
2017-12-10T01:02:20.943Z,0
2017-12-10T01:03:31.522Z,0
2017-12-10T01:04:41.770Z,0
2017-12-10T01:05:52.010Z,0
2017-12-10T01:07:02.002Z,0
2017-12-10T01:08:12.007Z,0
2017-12-10T01:09:22.258Z,0
2017-12-10T01:10:32.649Z,0
2017-12-10T01:11:42.932Z,0
2017-12-10T01:12:53.285Z,0
2017-12-10T01:14:03.526Z,0
2017-12-10T01:15:13.779Z,0
2017-12-10T01:16:24.016Z,0
2017-12-10T01:17:34.301Z,0
2017-12-10T01:18:44.309Z,0
2017-12-10T01:19:54.568Z,0
2017-12-10T01:21:04.840Z,0
2017-12-10T01:22:15.139Z,0
2017-12-10T01:23:25.424Z,0
2017-12-10T01:24:35.412Z,0
2017-12-10T01:25:45.679Z,0
2017-12-10T01:26:55.969Z,0
2017-12-10T01:28:06.009Z,0
2017-12-10T01:29:16.255Z,0
2017-12-10T01:30:26.282Z,0
2017-12-10T01:31:36.049Z,0
2017-12-10T01:32:46.376Z,0
2017-12-10T01:33:56.367Z,0
2017-12-10T01:35:06.872Z,0
2017-12-10T01:36:17.121Z,0
2017-12-10T01:37:26.743Z,0
2017-12-10T01:38:36.983Z,0
2017-12-10T01:39:47.278Z,0
2017-12-10T01:40:57.584Z,0
2017-12-10T01:42:07.550Z,0
2017-12-10T01:43:17.733Z,0
2017-12-10T01:44:28.034Z,0
2017-12-10T01:45:38.297Z,0
2017-12-10T01:46:48.316Z,0
2017-12-10T01:47:58.629Z,0
2017-12-10T01:49:08.936Z,0
2017-12-10T01:50:19.335Z,0
2017-12-10T01:51:29.327Z,0
2017-12-10T01:52:39.776Z,0
2017-12-10T01:53:50.046Z,0
2017-12-10T01:55:00.294Z,0
2017-12-10T01:56:11.275Z,0
2017-12-10T01:57:21.662Z,0
2017-12-10T01:58:31.906Z,0
2017-12-10T01:59:42.148Z,0
2017-12-10T02:00:52.435Z,0
2017-12-10T02:02:02.688Z,0
2017-12-10T02:03:12.984Z,0
2017-12-10T02:04:22.455Z,0
2017-12-10T02:05:32.718Z,0
2017-12-10T02:06:42.977Z,0
2017-12-10T02:07:53.203Z,0
2017-12-10T02:09:03.061Z,0
2017-12-10T02:10:13.363Z,0
2017-12-10T02:11:23.648Z,0
2017-12-10T02:12:33.982Z,0
2017-12-10T02:13:44.217Z,0
2017-12-10T02:14:54.091Z,0
2017-12-10T02:16:04.373Z,0
2017-12-10T02:17:14.623Z,0
2017-12-10T02:18:25.874Z,0
2017-12-10T02:19:36.249Z,0
2017-12-10T02:20:46.261Z,0
2017-12-10T02:21:56.522Z,0
2017-12-10T02:23:06.583Z,0
2017-12-10T02:24:16.567Z,0
2017-12-10T02:25:26.890Z,0
2017-12-10T02:26:37.156Z,0
2017-12-10T02:27:47.422Z,0
2017-12-10T02:28:57.731Z,0
2017-12-10T02:30:08.599Z,0
2017-12-10T02:31:18.616Z,0
2017-12-10T02:32:29.829Z,0
2017-12-10T02:33:40.082Z,0
2017-12-10T02:34:49.988Z,0
2017-12-10T02:36:00.311Z,0
2017-12-10T02:37:10.551Z,0
2017-12-10T02:38:20.834Z,0
2017-12-10T02:39:30.715Z,0
2017-12-10T02:40:40.696Z,0
2017-12-10T02:41:51.994Z,0
2017-12-10T02:43:02.365Z,0
2017-12-10T02:44:12.247Z,0
2017-12-10T02:45:22.613Z,0
2017-12-10T02:46:32.975Z,0
2017-12-10T02:47:42.935Z,0
2017-12-10T02:48:53.291Z,0
2017-12-10T02:50:03.604Z,0
2017-12-10T02:51:13.909Z,0
2017-12-10T02:52:24.069Z,0
2017-12-10T02:53:34.305Z,0
2017-12-10T02:54:44.603Z,0
2017-12-10T02:55:54.591Z,0
2017-12-10T02:57:04.843Z,0
2017-12-10T02:58:15.079Z,0
2017-12-10T02:59:25.326Z,0
2017-12-10T03:00:35.589Z,0
2017-12-10T03:01:45.843Z,0
2017-12-10T03:02:56.069Z,0
2017-12-10T03:04:05.928Z,0
2017-12-10T03:05:16.172Z,0
2017-12-10T03:06:26.433Z,0
2017-12-10T03:07:36.747Z,0
2017-12-10T03:08:46.777Z,0
2017-12-10T03:09:56.769Z,0
2017-12-10T03:11:07.088Z,0
2017-12-10T03:12:17.346Z,0
2017-12-10T03:13:27.595Z,0
2017-12-10T03:14:37.831Z,0
2017-12-10T03:15:48.099Z,0
2017-12-10T03:16:58.378Z,0
2017-12-10T03:18:08.801Z,0
2017-12-10T03:19:19.086Z,0
2017-12-10T03:20:29.074Z,0
2017-12-10T03:21:39.328Z,0
2017-12-10T03:22:49.656Z,0
2017-12-10T03:24:00.067Z,0
2017-12-10T03:25:10.309Z,0
2017-12-10T03:26:20.561Z,0
2017-12-10T03:27:30.822Z,0
2017-12-10T03:28:41.062Z,0
2017-12-10T03:29:51.324Z,0
2017-12-10T03:31:01.709Z,0
2017-12-10T03:32:11.957Z,0
2017-12-10T03:33:22.273Z,0
2017-12-10T03:34:32.282Z,0
2017-12-10T03:35:42.581Z,0
2017-12-10T03:36:52.416Z,0
2017-12-10T03:38:02.663Z,0
2017-12-10T03:39:12.667Z,0
2017-12-10T03:40:22.909Z,0
2017-12-10T03:41:32.940Z,0
2017-12-10T03:42:43.221Z,0
2017-12-10T03:43:53.201Z,0
2017-12-10T03:45:03.438Z,0
2017-12-10T03:46:13.689Z,0
2017-12-10T03:47:23.938Z,0
2017-12-10T03:48:33.947Z,0
2017-12-10T03:49:44.326Z,0
2017-12-10T03:50:54.633Z,0
2017-12-10T03:52:04.909Z,0
2017-12-10T03:53:15.170Z,0
2017-12-10T03:54:25.405Z,0
2017-12-10T03:55:35.637Z,0
2017-12-10T03:56:45.898Z,0
2017-12-10T03:57:56.129Z,0
2017-12-10T03:59:05.914Z,0
2017-12-10T04:00:16.224Z,0
2017-12-10T04:01:26.218Z,0
2017-12-10T04:02:36.228Z,0
2017-12-10T04:03:46.497Z,0
2017-12-10T04:04:56.510Z,0
2017-12-10T04:06:06.803Z,0
2017-12-10T04:07:17.176Z,0
2017-12-10T04:08:27.122Z,0
2017-12-10T04:09:37.388Z,0
2017-12-10T04:10:47.678Z,0
2017-12-10T04:11:57.897Z,0
2017-12-10T04:13:08.184Z,0
2017-12-10T04:14:18.533Z,0
2017-12-10T04:15:28.785Z,0
2017-12-10T04:16:39.057Z,0
2017-12-10T04:17:49.330Z,0
2017-12-10T04:18:59.351Z,0
2017-12-10T04:20:09.622Z,0
2017-12-10T04:21:19.874Z,0
2017-12-10T04:22:30.124Z,0
2017-12-10T04:23:40.112Z,0
2017-12-10T04:24:50.591Z,0
2017-12-10T04:26:00.653Z,0
2017-12-10T04:27:10.972Z,0
2017-12-10T04:28:20.854Z,0
2017-12-10T04:29:31.088Z,0
2017-12-10T04:30:41.328Z,0
2017-12-10T04:31:51.306Z,0
2017-12-10T04:33:01.268Z,0
2017-12-10T04:34:11.018Z,0
2017-12-10T04:35:21.298Z,0
2017-12-10T04:36:31.271Z,0
2017-12-10T04:37:41.508Z,0
2017-12-10T04:38:51.477Z,0
2017-12-10T04:40:01.735Z,0
2017-12-10T04:41:11.991Z,0
2017-12-10T04:42:21.976Z,0
2017-12-10T04:43:32.244Z,0
2017-12-10T04:44:42.498Z,0
2017-12-10T04:45:52.738Z,0
2017-12-10T04:47:02.983Z,0
2017-12-10T04:48:13.218Z,0
2017-12-10T04:49:23.447Z,0
2017-12-10T04:50:33.675Z,0
2017-12-10T04:51:43.652Z,0
2017-12-10T04:52:53.636Z,0
2017-12-10T04:54:03.647Z,0
2017-12-10T04:55:13.892Z,0
2017-12-10T04:56:23.896Z,0
2017-12-10T04:57:34.189Z,0
2017-12-10T04:58:43.789Z,0
2017-12-10T04:59:53.816Z,0
2017-12-10T05:01:03.833Z,0
2017-12-10T05:02:13.829Z,0
2017-12-10T05:03:24.102Z,0
2017-12-10T05:04:34.342Z,0
2017-12-10T05:05:44.416Z,0
2017-12-10T05:06:54.669Z,0
2017-12-10T05:08:04.932Z,0
2017-12-10T05:09:14.683Z,0
2017-12-10T05:10:24.562Z,0
2017-12-10T05:11:34.862Z,0
2017-12-10T05:12:44.927Z,0
2017-12-10T05:13:54.898Z,0
2017-12-10T05:15:05.148Z,0
2017-12-10T05:16:15.381Z,0
2017-12-10T05:17:25.756Z,0
2017-12-10T05:18:36.075Z,0
2017-12-10T05:19:46.078Z,0
2017-12-10T05:20:55.841Z,0
2017-12-10T05:22:06.107Z,0
2017-12-10T05:23:16.090Z,0
2017-12-10T05:24:26.106Z,0
2017-12-10T05:25:36.012Z,0
2017-12-10T05:26:46.241Z,0
2017-12-10T05:27:56.202Z,0
2017-12-10T05:29:06.443Z,0
2017-12-10T05:30:16.366Z,0
2017-12-10T05:31:26.606Z,0
2017-12-10T05:32:36.861Z,0
2017-12-10T05:33:47.200Z,0
2017-12-10T05:34:57.508Z,0
2017-12-10T05:36:07.778Z,0
2017-12-10T05:37:17.500Z,0
2017-12-10T05:38:27.792Z,0
2017-12-10T05:39:38.036Z,0
2017-12-10T05:40:48.280Z,0
2017-12-10T05:41:58.525Z,0
2017-12-10T05:43:08.768Z,0
2017-12-10T05:44:19.042Z,0
2017-12-10T05:45:29.290Z,0
2017-12-10T05:46:39.654Z,0
2017-12-10T05:47:49.637Z,0
2017-12-10T05:48:59.877Z,0
2017-12-10T05:50:10.118Z,0
2017-12-10T05:51:20.350Z,0
2017-12-10T05:52:30.619Z,0
2017-12-10T05:53:41.106Z,0
2017-12-10T05:54:51.341Z,0
2017-12-10T05:56:01.602Z,0
2017-12-10T05:57:11.848Z,0
2017-12-10T05:58:22.095Z,0
2017-12-10T05:59:32.131Z,0
2017-12-10T06:00:42.414Z,0
2017-12-10T06:01:52.413Z,0
2017-12-10T06:03:02.675Z,0
2017-12-10T06:04:13.016Z,0
2017-12-10T06:05:23.265Z,0
2017-12-10T06:06:33.548Z,0
2017-12-10T06:07:43.549Z,0
2017-12-10T06:08:53.865Z,0
2017-12-10T06:10:03.947Z,0
2017-12-10T06:11:13.913Z,0
2017-12-10T06:12:24.237Z,0
2017-12-10T06:13:34.472Z,0
2017-12-10T06:14:44.714Z,0
2017-12-10T06:15:54.806Z,0
2017-12-10T06:17:04.837Z,0
2017-12-10T06:18:15.155Z,0
2017-12-10T06:19:25.405Z,0
2017-12-10T06:20:35.311Z,0
2017-12-10T06:21:45.565Z,0
2017-12-10T06:22:55.542Z,0
2017-12-10T06:24:05.881Z,0
2017-12-10T06:25:15.829Z,0
2017-12-10T06:26:26.081Z,0
2017-12-10T06:27:36.368Z,0
2017-12-10T06:28:46.714Z,0
2017-12-10T06:29:56.690Z,0
2017-12-10T06:31:06.939Z,0
2017-12-10T06:32:17.229Z,0
2017-12-10T06:33:27.478Z,0
2017-12-10T06:34:37.769Z,0
2017-12-10T06:35:47.790Z,0
2017-12-10T06:36:58.029Z,0
2017-12-10T06:38:08.571Z,0
2017-12-10T06:39:18.801Z,0
2017-12-10T06:40:29.115Z,0
2017-12-10T06:41:40.314Z,0
2017-12-10T06:42:50.624Z,0
2017-12-10T06:44:00.666Z,0
2017-12-10T06:45:10.993Z,0
2017-12-10T06:46:20.705Z,0
2017-12-10T06:47:30.945Z,0
2017-12-10T06:48:40.918Z,0
2017-12-10T06:49:51.263Z,0
2017-12-10T06:51:01.532Z,0
2017-12-10T06:52:12.200Z,0
2017-12-10T06:53:22.447Z,0
2017-12-10T06:54:32.708Z,0
2017-12-10T06:55:42.953Z,0
2017-12-10T06:56:52.972Z,0
2017-12-10T06:58:03.241Z,0
2017-12-10T06:59:13.512Z,0
2017-12-10T07:00:23.755Z,0
2017-12-10T07:01:34.004Z,5
2017-12-10T07:02:43.954Z,5
2017-12-10T07:03:54.229Z,5
2017-12-10T07:05:04.555Z,5
2017-12-10T07:06:14.905Z,5
2017-12-10T07:07:24.897Z,5
2017-12-10T07:08:35.263Z,10
2017-12-10T07:09:44.969Z,10
2017-12-10T07:10:54.973Z,10
2017-12-10T07:12:04.987Z,10
2017-12-10T07:13:15.004Z,10
2017-12-10T07:14:25.352Z,10
2017-12-10T07:15:35.380Z,15
2017-12-10T07:16:45.878Z,15
2017-12-10T07:17:56.155Z,15
2017-12-10T07:19:06.422Z,15
2017-12-10T07:20:16.681Z,20
2017-12-10T07:21:26.948Z,20
2017-12-10T07:22:37.179Z,20
2017-12-10T07:23:47.242Z,20
2017-12-10T07:24:57.514Z,25
2017-12-10T07:26:07.525Z,25
2017-12-10T07:27:17.936Z,25
2017-12-10T07:28:28.179Z,30
2017-12-10T07:29:38.478Z,30
2017-12-10T07:30:48.769Z,30
2017-12-10T07:31:59.006Z,35
2017-12-10T07:33:09.511Z,35
2017-12-10T07:34:19.787Z,40
2017-12-10T07:35:30.128Z,45
2017-12-10T07:36:41.372Z,50
2017-12-10T07:37:51.844Z,50
2017-12-10T07:39:02.151Z,50
2017-12-10T07:40:12.186Z,55
2017-12-10T07:41:22.468Z,60
2017-12-10T07:42:32.805Z,60
2017-12-10T07:43:43.084Z,65
2017-12-10T07:44:53.102Z,65
2017-12-10T07:46:03.360Z,65
2017-12-10T07:47:13.638Z,65
2017-12-10T07:48:23.673Z,65
2017-12-10T07:49:33.938Z,65
2017-12-10T07:50:43.696Z,70
2017-12-10T07:51:54.226Z,70
2017-12-10T07:53:04.495Z,70
2017-12-10T07:54:14.500Z,70
2017-12-10T07:55:24.782Z,75
2017-12-10T07:56:35.034Z,75
2017-12-10T07:57:45.027Z,75
2017-12-10T07:58:56.339Z,75
2017-12-10T08:00:06.345Z,75
2017-12-10T08:01:16.911Z,75
2017-12-10T08:02:27.190Z,80
2017-12-10T08:03:37.439Z,80
2017-12-10T08:04:46.841Z,80
2017-12-10T08:05:57.201Z,75
2017-12-10T08:07:07.325Z,75
2017-12-10T08:08:17.575Z,75
2017-12-10T08:09:27.848Z,80
2017-12-10T08:10:37.883Z,80
2017-12-10T08:11:47.659Z,80
2017-12-10T08:12:57.673Z,85
2017-12-10T08:14:07.911Z,100
2017-12-10T08:15:17.873Z,110
2017-12-10T08:16:28.172Z,100
2017-12-10T08:17:38.052Z,75
2017-12-10T08:18:48.040Z,75
2017-12-10T08:19:58.351Z,70
2017-12-10T08:21:08.716Z,60
2017-12-10T08:22:18.975Z,60
2017-12-10T08:23:29.225Z,60
2017-12-10T08:24:39.497Z,60
2017-12-10T08:25:49.800Z,65
2017-12-10T08:27:00.059Z,70
2017-12-10T08:28:09.958Z,75
2017-12-10T08:29:20.043Z,75
2017-12-10T08:30:30.051Z,65
2017-12-10T08:31:40.040Z,55
2017-12-10T08:32:50.398Z,55
2017-12-10T08:34:00.672Z,65
2017-12-10T08:35:10.952Z,60
2017-12-10T08:36:21.213Z,50
2017-12-10T08:37:31.492Z,50
2017-12-10T08:38:41.915Z,45
2017-12-10T08:39:51.888Z,45
2017-12-10T08:41:02.147Z,50
2017-12-10T08:42:12.662Z,45
2017-12-10T08:43:22.399Z,55
2017-12-10T08:44:32.400Z,50
2017-12-10T08:45:42.286Z,50
2017-12-10T08:46:52.362Z,45
2017-12-10T08:48:02.405Z,45
2017-12-10T08:49:12.655Z,55
2017-12-10T08:50:22.667Z,55
2017-12-10T08:51:32.987Z,55
2017-12-10T08:52:43.277Z,60
2017-12-10T08:53:53.302Z,60
2017-12-10T08:55:03.073Z,60
2017-12-10T08:56:13.416Z,60
2017-12-10T08:57:23.718Z,60
2017-12-10T08:58:33.982Z,60
2017-12-10T08:59:44.297Z,60
2017-12-10T09:00:54.585Z,65
2017-12-10T09:02:04.914Z,60
2017-12-10T09:03:15.162Z,60
2017-12-10T09:04:25.432Z,55
2017-12-10T09:05:35.484Z,55
2017-12-10T09:06:45.820Z,60
2017-12-10T09:07:56.092Z,65
2017-12-10T09:09:06.365Z,75
2017-12-10T09:10:16.634Z,80
2017-12-10T09:11:26.380Z,75
2017-12-10T09:12:36.431Z,80
2017-12-10T09:13:46.788Z,85
2017-12-10T09:14:57.037Z,95
2017-12-10T09:16:07.334Z,90
2017-12-10T09:17:17.456Z,85
2017-12-10T09:18:27.483Z,80
2017-12-10T09:19:37.749Z,80
2017-12-10T09:20:47.818Z,80
2017-12-10T09:21:57.862Z,75
2017-12-10T09:23:07.856Z,70
2017-12-10T09:24:17.851Z,70
2017-12-10T09:25:28.144Z,75
2017-12-10T09:26:37.520Z,85
2017-12-10T09:27:47.791Z,90
2017-12-10T09:28:57.816Z,95
2017-12-10T09:30:08.164Z,100
2017-12-10T09:31:18.487Z,105
2017-12-10T09:32:28.765Z,110
2017-12-10T09:33:39.103Z,115
2017-12-10T09:34:49.394Z,115
2017-12-10T09:35:59.661Z,110
2017-12-10T09:37:09.932Z,100
2017-12-10T09:38:20.168Z,90
2017-12-10T09:39:30.132Z,95
2017-12-10T09:40:40.402Z,85
2017-12-10T09:42:22.215Z,75
2017-12-10T09:43:32.518Z,80
2017-12-10T09:44:42.791Z,85
2017-12-10T09:45:52.799Z,85
2017-12-10T09:47:03.141Z,85
2017-12-10T09:48:13.037Z,90
2017-12-10T09:49:23.411Z,110
2017-12-10T09:50:33.702Z,125
2017-12-10T09:51:43.969Z,135
2017-12-10T09:52:54.253Z,130
2017-12-10T09:54:04.545Z,120
2017-12-10T09:55:14.635Z,115
2017-12-10T09:56:24.906Z,115
2017-12-10T09:57:34.705Z,120
2017-12-10T09:58:45.918Z,130
2017-12-10T09:59:55.548Z,135
2017-12-10T10:01:05.834Z,135
2017-12-10T10:02:16.090Z,125
2017-12-10T10:03:26.148Z,115
2017-12-10T10:04:37.484Z,105
2017-12-10T10:05:47.751Z,105
2017-12-10T10:06:58.054Z,105
2017-12-10T10:08:08.338Z,105
2017-12-10T10:09:18.634Z,110
2017-12-10T10:10:28.638Z,120
2017-12-10T10:11:38.686Z,125
2017-12-10T10:12:48.828Z,125
2017-12-10T10:13:58.944Z,130
2017-12-10T10:15:08.944Z,130
2017-12-10T10:16:19.260Z,120
2017-12-10T10:17:29.378Z,115
2017-12-10T10:18:39.664Z,110
2017-12-10T10:19:49.953Z,115
2017-12-10T10:21:00.237Z,125
2017-12-10T10:22:10.488Z,130
2017-12-10T10:23:20.816Z,125
2017-12-10T10:24:31.096Z,125
2017-12-10T10:25:41.368Z,120
2017-12-10T10:26:51.675Z,115
2017-12-10T10:28:01.959Z,110
2017-12-10T10:29:11.775Z,105
2017-12-10T10:30:22.992Z,105
2017-12-10T10:31:32.994Z,100
2017-12-10T10:32:43.275Z,100
2017-12-10T10:33:53.521Z,100
2017-12-10T10:35:03.532Z,90
2017-12-10T10:36:13.564Z,85
2017-12-10T10:37:23.812Z,80
2017-12-10T10:38:34.100Z,80
2017-12-10T10:39:44.120Z,95
2017-12-10T10:40:54.453Z,95
2017-12-10T10:42:04.713Z,90
2017-12-10T10:43:14.979Z,85
2017-12-10T10:44:25.326Z,85
2017-12-10T10:45:35.579Z,85
2017-12-10T10:46:44.968Z,90
2017-12-10T10:47:55.242Z,105
2017-12-10T10:49:05.516Z,120
2017-12-10T10:50:15.290Z,125
2017-12-10T10:51:25.776Z,130
2017-12-10T10:52:35.905Z,135
2017-12-10T10:53:45.620Z,145
2017-12-10T10:54:55.889Z,150
2017-12-10T10:56:06.276Z,150
2017-12-10T10:57:15.962Z,150
2017-12-10T10:58:26.064Z,150
2017-12-10T10:59:36.365Z,145
2017-12-10T11:00:46.635Z,145
2017-12-10T11:01:56.573Z,150
2017-12-10T11:03:06.910Z,150
2017-12-10T11:04:17.210Z,150
2017-12-10T11:05:28.454Z,145
2017-12-10T11:06:38.746Z,150
2017-12-10T11:07:49.050Z,150
2017-12-10T11:08:59.377Z,155
2017-12-10T11:10:09.412Z,165
2017-12-10T11:11:19.749Z,170
2017-12-10T11:12:29.990Z,175
2017-12-10T11:13:40.235Z,180
2017-12-10T11:14:50.521Z,175
2017-12-10T11:16:00.866Z,170
2017-12-10T11:17:10.911Z,175
2017-12-10T11:18:21.343Z,175
2017-12-10T11:19:31.597Z,170
2017-12-10T11:20:41.853Z,165
2017-12-10T11:21:52.193Z,160
2017-12-10T11:23:02.122Z,165
2017-12-10T11:24:12.198Z,165
2017-12-10T11:25:21.911Z,165
2017-12-10T11:26:31.821Z,160
2017-12-10T11:27:42.136Z,160
2017-12-10T11:28:52.442Z,165
2017-12-10T11:30:02.769Z,175
2017-12-10T11:31:13.030Z,180
2017-12-10T11:32:23.304Z,190
2017-12-10T11:33:33.137Z,190
2017-12-10T11:34:43.476Z,180
2017-12-10T11:35:53.812Z,165
2017-12-10T11:37:04.092Z,160
2017-12-10T11:38:14.371Z,160
2017-12-10T11:39:24.051Z,160
2017-12-10T11:40:34.350Z,160
2017-12-10T11:41:44.640Z,160
2017-12-10T11:42:55.091Z,160
2017-12-10T11:44:05.093Z,160
2017-12-10T11:45:15.462Z,155
2017-12-10T11:46:25.749Z,150
2017-12-10T11:47:36.043Z,150
2017-12-10T11:48:46.322Z,145
2017-12-10T11:49:56.601Z,135
2017-12-10T11:51:06.666Z,130
2017-12-10T11:52:16.933Z,130
2017-12-10T11:53:27.259Z,130
2017-12-10T11:54:37.339Z,130
2017-12-10T11:55:47.629Z,125
2017-12-10T11:56:57.676Z,130
2017-12-10T11:58:07.965Z,130
2017-12-10T11:59:18.247Z,135
2017-12-10T12:00:28.510Z,140
2017-12-10T12:02:10.684Z,145
2017-12-10T12:03:20.996Z,145
2017-12-10T12:04:31.380Z,145
2017-12-10T12:05:41.675Z,150
2017-12-10T12:06:51.966Z,150
2017-12-10T12:08:02.158Z,150
2017-12-10T12:09:12.469Z,145
2017-12-10T12:10:22.796Z,140
2017-12-10T12:11:32.820Z,135
2017-12-10T12:12:42.955Z,130
2017-12-10T12:13:53.221Z,125
2017-12-10T12:15:03.545Z,120
2017-12-10T12:16:13.937Z,115
2017-12-10T12:17:24.282Z,110
2017-12-10T12:18:34.548Z,105
2017-12-10T12:19:44.887Z,105
2017-12-10T12:20:55.228Z,105
2017-12-10T12:22:05.585Z,100
2017-12-10T12:23:15.882Z,105
2017-12-10T12:24:26.176Z,105
2017-12-10T12:25:36.456Z,105
2017-12-10T12:26:46.842Z,105
2017-12-10T12:27:57.136Z,100
2017-12-10T12:29:07.422Z,100
2017-12-10T12:30:17.758Z,100
2017-12-10T12:31:28.059Z,100
2017-12-10T12:32:38.158Z,100
2017-12-10T12:33:48.470Z,95
2017-12-10T12:34:59.703Z,90
2017-12-10T12:36:09.990Z,85
2017-12-10T12:37:20.350Z,80
2017-12-10T12:38:30.724Z,80
2017-12-10T12:39:41.023Z,75
2017-12-10T12:40:51.856Z,75
2017-12-10T12:42:02.217Z,75
2017-12-10T12:43:12.281Z,75
2017-12-10T12:44:22.388Z,75
2017-12-10T12:45:32.700Z,75
2017-12-10T12:46:42.749Z,80
2017-12-10T12:47:52.807Z,80
2017-12-10T12:49:04.096Z,80
2017-12-10T12:50:14.458Z,80
2017-12-10T12:51:24.748Z,75
2017-12-10T12:52:35.053Z,70
2017-12-10T12:53:45.477Z,70
2017-12-10T12:54:55.495Z,70
2017-12-10T12:56:05.898Z,70
2017-12-10T12:57:16.337Z,65
2017-12-10T12:58:26.654Z,65
2017-12-10T12:59:36.946Z,65
2017-12-10T13:00:47.236Z,65
2017-12-10T13:01:58.518Z,60
2017-12-10T13:03:08.807Z,60
2017-12-10T13:04:19.136Z,60
2017-12-10T13:05:29.415Z,60
2017-12-10T13:06:40.013Z,55
2017-12-10T13:07:50.316Z,55
2017-12-10T13:09:00.344Z,55
2017-12-10T13:10:10.625Z,50
2017-12-10T13:11:20.656Z,50
2017-12-10T13:12:30.967Z,50
2017-12-10T13:13:41.286Z,45
2017-12-10T13:14:51.610Z,45
2017-12-10T13:16:01.904Z,45
2017-12-10T13:17:12.271Z,40
2017-12-10T13:18:22.632Z,40
2017-12-10T13:19:32.912Z,40
2017-12-10T13:20:43.097Z,40
2017-12-10T13:21:53.372Z,40
2017-12-10T13:23:03.733Z,35
2017-12-10T13:24:14.149Z,35
2017-12-10T13:25:24.459Z,35
2017-12-10T13:26:34.784Z,35
2017-12-10T13:27:45.187Z,35
2017-12-10T13:28:55.479Z,35
2017-12-10T13:30:05.792Z,35
2017-12-10T13:31:15.573Z,35
2017-12-10T13:32:25.488Z,35
2017-12-10T13:33:35.412Z,35
2017-12-10T13:34:45.700Z,35
2017-12-10T13:35:55.976Z,35
2017-12-10T13:37:06.276Z,35
2017-12-10T13:38:16.601Z,35
2017-12-10T13:39:26.889Z,35
2017-12-10T13:40:37.289Z,30
2017-12-10T13:41:47.652Z,30
2017-12-10T13:42:57.965Z,30
2017-12-10T13:44:08.278Z,30
2017-12-10T13:45:50.496Z,30
2017-12-10T13:47:00.592Z,30
2017-12-10T13:48:10.864Z,30
2017-12-10T13:49:21.170Z,30
2017-12-10T13:50:31.199Z,30
2017-12-10T13:51:41.520Z,30
2017-12-10T13:52:51.829Z,25
2017-12-10T13:54:03.088Z,25
2017-12-10T13:55:13.374Z,25
2017-12-10T13:56:23.331Z,20
2017-12-10T13:57:33.704Z,20
2017-12-10T13:58:43.975Z,20
2017-12-10T13:59:54.267Z,20
2017-12-10T14:01:04.675Z,20
2017-12-10T14:02:14.783Z,20
2017-12-10T14:03:25.113Z,20
2017-12-10T14:04:35.428Z,20
2017-12-10T14:05:45.753Z,20
2017-12-10T14:06:56.055Z,15
2017-12-10T14:08:06.340Z,15
2017-12-10T14:09:16.727Z,15
2017-12-10T14:10:26.243Z,15
2017-12-10T14:11:36.283Z,15
2017-12-10T14:12:46.599Z,15
2017-12-10T14:13:56.666Z,10
2017-12-10T14:15:07.004Z,10
2017-12-10T14:16:17.280Z,10
2017-12-10T14:17:27.633Z,10
2017-12-10T14:18:37.478Z,10
2017-12-10T14:19:47.627Z,10
2017-12-10T14:20:58.057Z,5
2017-12-10T14:22:08.120Z,5
2017-12-10T14:23:18.568Z,5
2017-12-10T14:24:31.467Z,5
2017-12-10T14:25:41.977Z,5
2017-12-10T14:26:52.439Z,5
2017-12-10T14:28:02.491Z,5
2017-12-10T14:29:13.031Z,5
2017-12-10T14:30:23.350Z,5
2017-12-10T14:31:33.830Z,5
2017-12-10T14:32:44.165Z,5
2017-12-10T14:33:54.502Z,5
2017-12-10T14:35:04.542Z,5
2017-12-10T14:36:14.915Z,5
2017-12-10T14:37:26.235Z,5
2017-12-10T14:38:36.708Z,5
2017-12-10T14:39:47.036Z,0
2017-12-10T14:40:57.375Z,0
2017-12-10T14:42:07.957Z,0
2017-12-10T14:43:18.041Z,0
2017-12-10T14:44:29.425Z,0
2017-12-10T14:45:41.541Z,0
2017-12-10T14:46:51.653Z,0
2017-12-10T14:48:01.979Z,0
2017-12-10T14:49:12.276Z,0
2017-12-10T14:50:22.601Z,0
2017-12-10T14:51:32.958Z,0
2017-12-10T14:52:43.298Z,0
2017-12-10T14:53:53.778Z,0
2017-12-10T14:55:04.130Z,0
2017-12-10T14:56:14.460Z,0
2017-12-10T14:57:24.776Z,0
2017-12-10T14:58:35.081Z,0
2017-12-10T14:59:45.051Z,0
2017-12-10T15:00:54.857Z,0
2017-12-10T15:02:04.889Z,0
2017-12-10T15:03:15.964Z,0
2017-12-10T15:04:26.530Z,0
2017-12-10T15:05:37.222Z,0
2017-12-10T15:06:47.266Z,0
2017-12-10T15:07:57.072Z,0
2017-12-10T15:09:07.448Z,0
2017-12-10T15:10:17.809Z,0
2017-12-10T15:11:28.459Z,0
2017-12-10T15:12:38.942Z,0
2017-12-10T15:13:49.508Z,0
2017-12-10T15:14:59.611Z,0
2017-12-10T15:16:09.938Z,0
2017-12-10T15:17:20.144Z,0
2017-12-10T15:18:30.534Z,0
2017-12-10T15:19:40.917Z,0
2017-12-10T15:20:51.234Z,0
2017-12-10T15:22:01.282Z,0
2017-12-10T15:23:11.574Z,0
2017-12-10T15:24:22.224Z,0
2017-12-10T15:25:32.593Z,0
2017-12-10T15:26:42.912Z,0
2017-12-10T15:27:52.968Z,0
2017-12-10T15:29:03.911Z,0
2017-12-10T15:30:14.224Z,0
2017-12-10T15:31:24.506Z,0
2017-12-10T15:32:34.645Z,0
2017-12-10T15:33:46.087Z,0
2017-12-10T15:34:56.387Z,0
2017-12-10T15:36:06.967Z,0
2017-12-10T15:37:17.287Z,0
2017-12-10T15:38:27.068Z,0
2017-12-10T15:39:38.808Z,0
2017-12-10T15:40:49.348Z,0
2017-12-10T15:41:59.638Z,0
2017-12-10T15:43:09.984Z,0
2017-12-10T15:44:20.071Z,0
2017-12-10T15:45:30.434Z,0
2017-12-10T15:46:40.732Z,0
2017-12-10T15:47:51.120Z,0
2017-12-10T15:49:01.438Z,0
2017-12-10T15:50:12.683Z,0
2017-12-10T15:51:23.172Z,0
2017-12-10T15:52:33.551Z,0
2017-12-10T15:53:43.979Z,0
2017-12-10T15:54:54.003Z,0
2017-12-10T15:56:04.411Z,0
2017-12-10T15:57:14.613Z,0
2017-12-10T15:58:25.108Z,0
2017-12-10T15:59:35.424Z,0
2017-12-10T16:00:45.493Z,0
2017-12-10T16:01:55.571Z,0
2017-12-10T16:03:06.029Z,0
2017-12-10T16:04:16.471Z,0
2017-12-10T16:05:26.580Z,0
2017-12-10T16:06:37.078Z,0
2017-12-10T16:07:47.355Z,0
2017-12-10T16:08:57.079Z,0
2017-12-10T16:10:07.120Z,0
2017-12-10T16:11:17.429Z,0
2017-12-10T16:12:27.535Z,0
2017-12-10T16:13:37.978Z,0
2017-12-10T16:14:48.285Z,0
2017-12-10T16:15:58.647Z,0
2017-12-10T16:17:08.987Z,0
2017-12-10T16:18:19.416Z,0
2017-12-10T16:19:33.557Z,0
2017-12-10T16:20:43.875Z,0
2017-12-10T16:21:54.230Z,0
2017-12-10T16:23:04.716Z,0
2017-12-10T16:24:15.319Z,0
2017-12-10T16:25:29.962Z,0
2017-12-10T16:26:40.892Z,0
2017-12-10T16:27:51.478Z,0
2017-12-10T16:29:07.715Z,0
2017-12-10T16:30:26.641Z,0
2017-12-10T16:31:36.939Z,0
2017-12-10T16:32:47.275Z,0
2017-12-10T16:33:57.760Z,0
2017-12-10T16:35:07.868Z,0
2017-12-10T16:36:18.215Z,0
2017-12-10T16:37:28.657Z,0
2017-12-10T16:38:38.921Z,0
2017-12-10T16:39:49.278Z,0
2017-12-10T16:40:59.372Z,0
2017-12-10T16:42:09.667Z,0
2017-12-10T16:43:20.931Z,0
2017-12-10T16:44:31.234Z,0
2017-12-10T16:45:41.301Z,0
2017-12-10T16:46:52.570Z,0
2017-12-10T16:48:02.896Z,0
2017-12-10T16:49:13.324Z,0
2017-12-10T16:50:23.640Z,0
2017-12-10T16:51:33.956Z,0
2017-12-10T16:52:44.357Z,0
2017-12-10T16:53:54.693Z,0
2017-12-10T16:55:05.089Z,0
2017-12-10T16:56:15.698Z,0
2017-12-10T16:57:26.193Z,0
2017-12-10T16:58:36.722Z,0
2017-12-10T16:59:47.226Z,0